Aplicació Alertes

Dades de l'estació automàtica Torroja del Priorat

?
?
Resum diari 23:00 TU
Dades diàries de l'estació meteorològica
Temperatura mitjana 7.7 °C
Temperatura màxima 16.2 °C 14:04 TU
Temperatura mínima 1.7 °C 6:35 TU
Humitat relativa mitjana 74%
Precipitació acumulada 0.0 mm
Ratxa màxima del vent (2 m) 16.2 km/h - 288º 14:38 TU
Irradiació solar global 11.1 MJ/m2

El tram horari està expressat en Temps Universal (TU). Cal sumar una hora en horari d'hivern i dues en horari d'estiu per passar a l'hora oficial.

Torroja del Priorat

Metadades estació meteorol´gica
Municipi Torroja del Priorat
Comarca Priorat
Altitud 300 m
Data alta 27.11.2003
Estat actual Operativa
Dades de període
Període
TU
TM
°C
TX
°C
TN
°C
HRM
%
PPT
mm
VVM (2 m)
km/h
DVM (2 m)
graus
VVX (2 m)
km/h
RS
W/m2
00:00 - 00:30 4.6 4.8 4.2 86 0.0 6.1 50 14.4 0
00:30 - 01:00 4.2 4.3 3.9 88 0.0 3.6 47 10.4 0
01:00 - 01:30 4.2 4.3 4.1 88 0.0 4.3 49 12.6 0
01:30 - 02:00 4.1 4.2 3.9 89 0.0 4.0 44 11.9 0
02:00 - 02:30 3.8 4.1 3.5 90 0.0 3.2 60 11.2 0
02:30 - 03:00 3.8 3.9 3.6 90 0.0 4.0 49 10.8 0
03:00 - 03:30 3.7 3.8 3.4 91 0.0 3.6 47 10.1 0
03:30 - 04:00 3.2 3.4 3.0 92 0.0 5.4 44 11.9 0
04:00 - 04:30 2.9 3.1 2.8 93 0.0 4.7 51 11.2 0
04:30 - 05:00 2.7 2.8 2.6 93 0.0 4.7 51 9.7 0
05:00 - 05:30 2.5 2.8 2.2 94 0.0 4.0 53 10.8 0
05:30 - 06:00 2.2 2.7 2.0 94 0.0 3.6 61 11.2 0
06:00 - 06:30 2.1 2.4 1.8 94 0.0 3.2 49 9.0 0
06:30 - 07:00 2.2 2.4 1.7 94 0.0 4.3 51 9.7 6
07:00 - 07:30 2.5 2.9 2.2 93 0.0 3.6 60 9.4 28
07:30 - 08:00 3.4 4.3 3.0 90 0.0 3.6 68 9.7 99
08:00 - 08:30 5.0 5.8 4.3 84 0.0 3.2 116 9.4 176
08:30 - 09:00 6.4 7.5 5.7 79 0.0 2.9 73 10.8 270
09:00 - 09:30 9.9 11.2 7.6 68 0.0 0.7 143 5.4 344
09:30 - 10:00 11.6 12.1 10.8 61 0.0 2.5 249 12.6 406
10:00 - 10:30 11.5 12.2 10.8 60 0.0 3.6 259 11.9 466
10:30 - 11:00 12.2 12.8 11.8 58 0.0 4.0 272 11.2 498
11:00 - 11:30 13.3 14.0 12.0 55 0.0 2.9 254 11.5 520
11:30 - 12:00 14.1 15.0 13.3 53 0.0 2.5 246 12.2 529
12:00 - 12:30 14.9 15.2 14.6 51 0.0 1.8 228 9.7 522
12:30 - 13:00 15.1 15.4 14.7 50 0.0 2.5 263 10.8 500
13:00 - 13:30 15.5 15.8 15.1 49 0.0 2.9 257 11.5 463
13:30 - 14:00 15.7 15.9 15.3 49 0.0 2.2 245 13.3 413
14:00 - 14:30 15.8 16.2 15.4 48 0.0 1.8 252 12.6 349
14:30 - 15:00 15.2 15.7 14.9 49 0.0 3.6 265 16.2 269
15:00 - 15:30 14.9 15.5 14.4 49 0.0 1.4 268 9.0 190
15:30 - 16:00 13.7 14.4 12.7 51 0.0 1.4 269 8.6 87
16:00 - 16:30 11.9 12.6 11.3 55 0.0 0.7 183 5.0 14
16:30 - 17:00 10.7 11.2 10.3 56 0.0 0.0 40 1.4 2
17:00 - 17:30 9.6 10.3 8.8 60 0.0 0.4 24 4.7 0
17:30 - 18:00 8.8 9.2 8.2 67 0.0 2.5 85 8.6 0
18:00 - 18:30 7.5 8.2 7.0 73 0.0 1.1 275 5.0 0
18:30 - 19:00 7.2 7.3 6.8 76 0.0 1.8 86 8.3 0
19:00 - 19:30 6.7 6.9 6.5 77 0.0 1.4 98 6.1 0
19:30 - 20:00 6.4 6.5 6.3 78 0.0 0.7 100 8.6 0
20:00 - 20:30 5.9 6.3 5.4 80 0.0 1.8 122 9.0 0
20:30 - 21:00 5.3 5.5 5.2 83 0.0 1.1 157 5.8 0
21:00 - 21:30 5.0 5.3 4.8 83 0.0 1.4 237 4.7 0
21:30 - 22:00 4.9 5.2 4.7 82 0.0 1.1 161 6.5 0
22:00 - 22:30 4.9 5.1 4.4 79 0.0 1.8 90 9.0 0
22:30 - 23:00 4.6 4.7 4.3 79 0.0 1.4 81 9.4 0
23:00 - 23:30 4.3 4.5 4.2 78 0.0 2.2 69 11.5 0

Les dades en taronja només han passat un control de qualitat automàtic. Resta pendent la seva validació definitiva.